Time;durP1;ratioP1;P1;durP2;ratioP2;P2;SDS_P1;SDS_P2;PMS_P1;PMS_P2;Temp;Humidity;BMP_temperature;BMP_pressure;BME280_temperature;BME280_humidity;BME280_pressure;Samples;Min_cycle;Max_cycle;Signal;HPM_P1;HPM_P2
2022/04/12 00:00:41;;;;;;;3.10;2.20;;;;;;;9.08;54.44;100238.63;5006433;28;20037;-71
2022/04/12 00:03:07;;;;;;;4.13;2.38;;;;;;;9.00;54.73;100230.59;4991536;28;20048;-71
2022/04/12 00:05:37;;;;;;;4.18;2.40;;;;;;;8.99;55.04;100228.97;4990358;28;20037;-71
2022/04/12 00:08:04;;;;;;;4.60;2.40;;;;;;;8.95;55.01;100227.59;5008601;28;20270;-71
2022/04/12 00:10:31;;;;;;;2.60;1.75;;;;;;;8.86;54.91;100236.38;5004330;28;20053;-71
2022/04/12 00:12:58;;;;;;;3.60;2.30;;;;;;;8.80;55.13;100234.34;5008285;28;20040;-71
2022/04/12 00:15:23;;;;;;;3.10;2.03;;;;;;;8.73;55.08;100231.47;4989912;28;20069;-71
2022/04/12 00:20:34;;;;;;;3.35;1.90;;;;;;;8.65;55.20;100216.41;5006326;28;20041;-71
2022/04/12 00:23:00;;;;;;;5.05;2.67;;;;;;;8.63;55.81;100223.63;5008193;28;20030;-71
2022/04/12 00:25:27;;;;;;;3.45;2.30;;;;;;;8.65;56.06;100216.41;5007367;28;20034;-71
2022/04/12 00:27:55;;;;;;;4.53;2.70;;;;;;;8.77;55.70;100222.31;4988109;28;20029;-71
2022/04/12 00:30:22;;;;;;;4.55;2.65;;;;;;;8.73;55.64;100215.66;5006099;28;20153;-71
2022/04/12 00:32:50;;;;;;;3.72;2.15;;;;;;;8.67;55.59;100216.22;5007597;28;20033;-71
2022/04/12 00:35:16;;;;;;;3.85;2.25;;;;;;;8.66;55.95;100220.69;5007402;28;20038;-71
2022/04/12 00:37:41;;;;;;;3.63;2.20;;;;;;;8.63;56.17;100215.72;5008059;28;20041;-71
2022/04/12 00:40:07;;;;;;;3.75;2.20;;;;;;;8.58;56.00;100219.75;5007487;28;20050;-71
2022/04/12 00:42:33;;;;;;;4.05;2.53;;;;;;;8.55;56.21;100212.13;4990174;28;20136;-71
2022/04/12 00:44:58;;;;;;;3.10;2.20;;;;;;;8.54;56.02;100208.69;5010420;28;20487;-71
2022/04/12 00:47:24;;;;;;;4.60;2.88;;;;;;;8.53;56.62;100211.44;5009653;28;20411;-71
2022/04/12 00:49:50;;;;;;;3.45;2.42;;;;;;;8.46;56.60;100217.31;5011208;28;20289;-71
2022/04/12 00:52:16;;;;;;;3.75;1.92;;;;;;;8.39;57.63;100212.72;5008607;28;20064;-71
2022/04/12 00:54:43;;;;;;;5.22;2.90;;;;;;;8.28;58.06;100216.38;5007150;28;20108;-71
2022/04/12 00:57:09;;;;;;;3.80;2.63;;;;;;;8.22;57.68;100217.81;5006860;28;20038;-71
2022/04/12 00:59:35;;;;;;;2.63;1.83;;;;;;;8.18;57.74;100212.97;5006211;28;20045;-70
2022/04/12 01:02:05;;;;;;;3.47;2.20;;;;;;;8.11;58.44;100209.25;5007570;28;20393;-71
2022/04/12 01:04:31;;;;;;;4.13;2.72;;;;;;;8.03;58.49;100216.06;5007391;28;20037;-71
2022/04/12 01:06:56;;;;;;;3.40;2.50;;;;;;;7.97;58.67;100206.09;5010186;28;20499;-71
2022/04/12 01:09:25;;;;;;;3.25;2.20;;;;;;;7.87;60.41;100214.00;5008253;28;20037;-71
2022/04/12 01:11:52;;;;;;;3.20;2.50;;;;;;;7.77;61.47;100212.34;5007372;28;20121;-71
2022/04/12 01:14:17;;;;;;;3.10;2.30;;;;;;;7.69;60.68;100214.88;5006199;28;20034;-71
2022/04/12 01:16:43;;;;;;;3.58;2.25;;;;;;;7.62;60.22;100206.69;5006257;28;20030;-71
2022/04/12 01:19:09;;;;;;;3.95;2.25;;;;;;;7.61;60.11;100211.13;5006310;28;20084;-71
2022/04/12 01:22:08;;;;;;;3.45;2.20;;;;;;;7.52;61.28;100211.16;5006587;28;20106;-71
2022/04/12 01:24:34;;;;;;;3.30;2.20;;;;;;;7.44;60.60;100207.41;5007047;28;20034;-71
2022/04/12 01:27:00;;;;;;;3.28;1.98;;;;;;;7.43;61.09;100213.63;4990866;28;20033;-71
2022/04/12 01:29:26;;;;;;;3.53;2.10;;;;;;;7.41;61.70;100206.84;4985823;28;20045;-70
2022/04/12 01:31:51;;;;;;;4.25;2.50;;;;;;;7.33;62.68;100210.19;5008848;28;20041;-71
2022/04/12 01:34:17;;;;;;;5.03;2.50;;;;;;;7.26;63.20;100206.44;5005175;28;20041;-71
2022/04/12 01:36:42;;;;;;;3.78;2.33;;;;;;;7.23;62.43;100207.56;5004997;28;20535;-70
2022/04/12 01:39:08;;;;;;;3.33;2.25;;;;;;;7.20;62.53;100199.94;5006387;28;20054;-71
2022/04/12 01:41:33;;;;;;;3.67;2.30;;;;;;;7.14;63.18;100210.19;5005882;28;20034;-71
2022/04/12 01:43:59;;;;;;;3.55;2.20;;;;;;;7.11;63.03;100207.84;5007254;28;20037;-70
2022/04/12 01:46:24;;;;;;;3.75;2.10;;;;;;;7.05;63.26;100206.56;5005006;28;20038;-71
2022/04/12 01:48:49;;;;;;;2.80;1.70;;;;;;;6.98;63.37;100208.06;5008163;28;20442;-71
2022/04/12 01:51:16;;;;;;;2.88;1.83;;;;;;;6.94;63.14;100209.34;5010643;28;20034;-70
2022/04/12 01:53:42;;;;;;;3.13;2.15;;;;;;;6.90;63.49;100211.41;4992782;28;20465;-70
2022/04/12 01:56:07;;;;;;;3.35;2.20;;;;;;;6.85;63.59;100208.34;4992741;28;20129;-71
2022/04/12 01:58:33;;;;;;;3.30;1.90;;;;;;;6.78;63.80;100194.91;5010503;28;20037;-70
2022/04/12 02:00:59;;;;;;;2.80;1.90;;;;;;;6.74;63.60;100200.56;5010270;28;20034;-71
2022/04/12 02:03:24;;;;;;;2.83;1.75;;;;;;;6.69;63.37;100198.34;5011673;28;20045;-71
2022/04/12 02:05:51;;;;;;;5.05;2.22;;;;;;;6.68;63.89;100201.94;5009767;28;20499;-71
2022/04/12 02:08:16;;;;;;;3.25;2.25;;;;;;;6.67;64.03;100191.56;5009907;28;20038;-71
2022/04/12 02:10:42;;;;;;;2.58;1.83;;;;;;;6.61;64.34;100189.50;5009797;28;20565;-71
2022/04/12 02:13:07;;;;;;;3.83;2.53;;;;;;;6.59;65.13;100185.19;5008507;28;20038;-71
2022/04/12 02:15:33;;;;;;;4.15;2.70;;;;;;;6.56;64.72;100182.00;5009213;28;20042;-71
2022/04/12 02:17:58;;;;;;;3.60;2.72;;;;;;;6.55;66.22;100180.34;5009926;28;20037;-70
2022/04/12 02:20:24;;;;;;;5.00;2.83;;;;;;;6.56;65.79;100185.47;5008748;28;20040;-71
2022/04/12 02:22:49;;;;;;;3.05;2.10;;;;;;;6.56;65.78;100179.38;5010262;28;20410;-71
2022/04/12 02:25:14;;;;;;;3.40;2.38;;;;;;;6.56;66.46;100200.41;5010116;28;20034;-71
2022/04/12 02:27:40;;;;;;;4.63;2.58;;;;;;;6.57;66.89;100189.75;5008895;28;20454;-70
2022/04/12 02:30:06;;;;;;;4.90;2.72;;;;;;;6.54;68.76;100191.81;5006404;28;20121;-70
2022/04/12 02:32:32;;;;;;;3.88;2.67;;;;;;;6.54;67.83;100186.56;5009495;28;20498;-71
2022/04/12 02:35:00;;;;;;;3.83;2.80;;;;;;;6.54;67.02;100195.28;5010063;28;20121;-71
2022/04/12 02:37:28;;;;;;;4.35;2.70;;;;;;;6.58;67.01;100188.78;5008766;28;20544;-70
2022/04/12 02:39:53;;;;;;;4.80;2.90;;;;;;;6.55;68.41;100188.22;5008242;28;20038;-71
2022/04/12 02:42:19;;;;;;;3.80;2.55;;;;;;;6.55;67.56;100181.19;5009274;28;20034;-71
2022/04/12 02:44:44;;;;;;;3.80;2.70;;;;;;;6.52;69.34;100188.50;5011443;28;20066;-70
2022/04/12 02:47:09;;;;;;;5.43;3.00;;;;;;;6.54;68.02;100186.56;5011986;28;20525;-70
2022/04/12 02:49:35;;;;;;;4.95;2.90;;;;;;;6.54;67.94;100182.13;5010557;28;20077;-71
2022/04/12 02:52:00;;;;;;;4.32;3.03;;;;;;;6.54;68.52;100183.94;5007515;28;20038;-70
2022/04/12 02:54:25;;;;;;;4.68;2.80;;;;;;;6.56;67.68;100179.38;5008943;28;20038;-71
2022/04/12 02:56:50;;;;;;;4.18;2.90;;;;;;;6.55;68.75;100191.69;5009685;28;20037;-71
2022/04/12 02:59:17;;;;;;;3.78;2.80;;;;;;;6.55;68.19;100181.19;5010306;28;20092;-71
2022/04/12 03:01:42;;;;;;;4.05;2.85;;;;;;;6.53;67.92;100191.00;5007600;28;20058;-70
2022/04/12 03:04:08;;;;;;;4.43;2.92;;;;;;;6.53;68.00;100191.00;5011794;28;20062;-71
2022/04/12 03:06:33;;;;;;;4.22;2.80;;;;;;;6.52;68.04;100186.69;4991437;28;20034;-71
2022/04/12 03:08:58;;;;;;;4.80;2.83;;;;;;;6.48;67.96;100187.91;5010049;28;20495;-71
2022/04/12 03:11:24;;;;;;;4.43;2.70;;;;;;;6.44;68.37;100185.72;5008687;28;20667;-71
2022/04/12 03:13:49;;;;;;;3.72;2.60;;;;;;;6.40;68.36;100189.56;5009462;28;20038;-70
2022/04/12 03:16:15;;;;;;;5.70;2.70;;;;;;;6.35;68.51;100184.72;5007880;28;20117;-71
2022/04/12 03:18:40;;;;;;;5.20;2.78;;;;;;;6.31;68.37;100180.69;5009822;28;20520;-70
2022/04/12 03:21:05;;;;;;;4.57;2.72;;;;;;;6.26;68.43;100190.75;5008907;28;20567;-71
2022/04/12 03:23:31;;;;;;;3.45;2.40;;;;;;;6.21;68.72;100180.63;5007877;28;20121;-70
2022/04/12 03:25:56;;;;;;;4.65;2.40;;;;;;;6.15;68.71;100182.00;5008971;28;20103;-70
2022/04/12 03:28:21;;;;;;;4.30;2.10;;;;;;;6.08;69.30;100180.06;5006772;28;20124;-70
2022/04/12 03:30:46;;;;;;;4.13;2.38;;;;;;;6.03;69.07;100176.97;5009144;28;20286;-70
2022/04/12 03:33:12;;;;;;;4.18;2.30;;;;;;;5.96;68.97;100174.06;5007218;28;20519;-70
2022/04/12 03:35:37;;;;;;;5.13;2.70;;;;;;;5.90;70.21;100172.72;4989300;28;20034;-70
2022/04/12 03:38:03;;;;;;;5.03;3.10;;;;;;;5.87;69.69;100180.03;5008669;28;20034;-70
2022/04/12 03:40:31;;;;;;;3.92;2.40;;;;;;;5.83;69.68;100184.72;5007376;28;20091;-70
2022/04/12 03:43:04;;;;;;;4.07;2.70;;;;;;;5.79;69.71;100177.22;5004890;28;20068;-70
2022/04/12 03:45:30;;;;;;;7.47;3.72;;;;;;;5.77;70.70;100177.38;5007403;28;20061;-70
2022/04/12 03:47:55;;;;;;;7.47;3.90;;;;;;;5.74;70.83;100165.34;5002947;28;20224;-70
2022/04/12 03:50:22;;;;;;;7.80;3.60;;;;;;;5.72;70.78;100167.25;5007127;28;20045;-71
2022/04/12 03:52:47;;;;;;;8.57;3.72;;;;;;;5.69;70.66;100170.13;5008752;28;20030;-70
2022/04/12 03:55:13;;;;;;;6.10;2.92;;;;;;;5.65;70.62;100171.38;5007515;28;21717;-70
2022/04/12 03:57:38;;;;;;;5.57;2.90;;;;;;;5.61;70.60;100169.94;5008606;28;20160;-71
2022/04/12 04:00:08;;;;;;;7.70;3.95;;;;;;;5.54;72.22;100179.28;5007383;28;20034;-71
2022/04/12 04:02:36;;;;;;;7.93;3.60;;;;;;;5.46;72.39;100179.94;5006670;28;20038;-70
2022/04/12 04:05:03;;;;;;;6.43;3.70;;;;;;;5.42;72.92;100175.06;5008195;28;20033;-71
2022/04/12 04:07:28;;;;;;;7.05;4.00;;;;;;;5.36;73.17;100176.38;5007502;28;20053;-71
2022/04/12 04:09:54;;;;;;;8.02;4.15;;;;;;;5.33;71.90;100171.41;5008504;28;20038;-70
2022/04/12 04:12:20;;;;;;;8.52;4.20;;;;;;;5.35;72.42;100168.66;5005963;28;20038;-70
2022/04/12 04:14:47;;;;;;;8.10;3.70;;;;;;;5.36;72.35;100170.31;5008162;28;20049;-70
2022/04/12 04:17:12;;;;;;;6.28;3.40;;;;;;;5.34;72.30;100170.47;5009087;28;20038;-71
2022/04/12 04:19:38;;;;;;;6.32;3.35;;;;;;;5.33;72.12;100167.00;5010517;28;20044;-70
2022/04/12 04:22:03;;;;;;;5.95;3.33;;;;;;;5.31;72.46;100171.56;4992305;28;20057;-70
2022/04/12 04:24:28;;;;;;;7.40;3.72;;;;;;;5.27;73.92;100158.81;5008989;28;20049;-70
2022/04/12 04:26:55;;;;;;;6.43;3.50;;;;;;;5.24;73.49;100170.41;5010752;28;20037;-71
2022/04/12 04:29:22;;;;;;;8.77;4.30;;;;;;;5.16;74.80;100175.41;5006763;28;20113;-70
2022/04/12 04:31:48;;;;;;;8.10;4.35;;;;;;;5.15;74.14;100172.91;5009507;28;20037;-71
2022/04/12 04:34:13;;;;;;;9.23;4.97;;;;;;;5.06;76.29;100179.75;5009348;28;20030;-71
2022/04/12 04:36:38;;;;;;;8.60;5.03;;;;;;;5.02;77.46;100191.44;5006915;28;20038;-70
2022/04/12 04:39:04;;;;;;;8.00;4.55;;;;;;;4.99;77.36;100191.69;5007752;28;20033;-70
2022/04/12 04:41:29;;;;;;;10.25;5.10;;;;;;;4.99;77.28;100189.06;5008385;28;20437;-70
2022/04/12 04:43:55;;;;;;;11.50;6.20;;;;;;;5.02;76.00;100186.19;5006492;28;20038;-70
2022/04/12 04:46:20;;;;;;;9.52;6.00;;;;;;;5.04;75.71;100184.28;5006201;28;20092;-70
2022/04/12 04:48:46;;;;;;;9.65;5.20;;;;;;;5.05;75.59;100193.81;5006824;28;20121;-70
2022/04/12 04:51:11;;;;;;;10.48;5.38;;;;;;;5.05;75.45;100199.03;4989455;28;20040;-71
2022/04/12 04:53:37;;;;;;;10.52;5.38;;;;;;;5.06;75.90;100203.34;5007083;28;20506;-70
2022/04/12 04:56:03;;;;;;;11.93;5.38;;;;;;;5.08;75.36;100201.44;5006913;28;20490;-71
2022/04/12 04:58:29;;;;;;;10.82;5.53;;;;;;;5.10;76.16;100199.50;5007947;28;20045;-70
2022/04/12 05:00:54;;;;;;;9.68;5.20;;;;;;;5.12;76.11;100181.84;5008953;28;20402;-70
2022/04/12 05:03:19;;;;;;;11.25;5.95;;;;;;;5.13;75.84;100191.41;5004434;28;20502;-70
2022/04/12 05:05:45;;;;;;;13.50;6.53;;;;;;;5.10;77.49;100192.50;5006955;28;20189;-70
2022/04/12 05:08:10;;;;;;;11.02;6.22;;;;;;;5.09;77.92;100203.09;5006437;28;20495;-71
2022/04/12 05:10:35;;;;;;;11.60;5.63;;;;;;;5.11;76.80;100194.13;5007613;28;20124;-71
2022/04/12 05:13:02;;;;;;;7.88;4.43;;;;;;;5.15;76.65;100197.34;5006518;28;20038;-70
2022/04/12 05:15:27;;;;;;;7.70;4.13;;;;;;;5.18;76.87;100191.03;5006771;28;20068;-70
2022/04/12 05:17:54;;;;;;;6.45;3.75;;;;;;;5.20;76.28;100187.31;5006821;28;20069;-71
2022/04/12 05:20:22;;;;;;;6.35;4.40;;;;;;;5.24;76.50;100199.22;5005929;28;20568;-70
2022/04/12 05:22:48;;;;;;;7.88;4.72;;;;;;;5.26;76.62;100202.53;5007293;28;20045;-70
2022/04/12 05:25:14;;;;;;;6.60;4.70;;;;;;;5.30;76.75;100211.81;5007508;28;20487;-70
2022/04/12 05:27:39;;;;;;;6.78;4.35;;;;;;;5.37;75.83;100216.56;5006511;28;20037;-70
2022/04/12 05:30:07;;;;;;;6.10;4.18;;;;;;;5.45;75.56;100219.38;5002230;28;20125;-71
2022/04/12 05:32:33;;;;;;;7.88;5.13;;;;;;;5.49;75.62;100220.81;5006405;28;20041;-70
2022/04/12 05:34:59;;;;;;;6.53;4.78;;;;;;;5.54;75.46;100227.31;5006165;28;20178;-70
2022/04/12 05:37:24;;;;;;;6.10;4.50;;;;;;;5.61;75.00;100225.03;5005946;28;20030;-70
2022/04/12 05:39:49;;;;;;;5.63;4.07;;;;;;;5.74;74.55;100235.31;5007566;28;20042;-71
2022/04/12 05:42:15;;;;;;;7.13;5.03;;;;;;;5.86;75.10;100234.28;4988489;28;20034;-71
2022/04/12 05:44:40;;;;;;;6.40;5.10;;;;;;;6.04;74.34;100229.34;5006865;28;20030;-71
2022/04/12 05:47:10;;;;;;;5.57;4.38;;;;;;;6.20;73.80;100234.13;5004216;28;20038;-71
2022/04/12 05:49:35;;;;;;;5.97;4.40;;;;;;;6.36;73.37;100226.59;5004695;28;20049;-71
2022/04/12 05:52:00;;;;;;;8.77;5.05;;;;;;;6.42;73.29;100227.03;5006636;28;20029;-71
2022/04/12 05:54:26;;;;;;;6.40;4.40;;;;;;;6.65;73.17;100227.66;5005852;28;20121;-71
2022/04/12 05:56:51;;;;;;;7.38;4.80;;;;;;;7.00;73.00;100222.75;5007137;28;20030;-71
2022/04/12 05:59:17;;;;;;;8.80;4.32;;;;;;;7.31;72.98;100216.56;5009225;28;20404;-71
2022/04/12 06:01:43;;;;;;;5.97;4.60;;;;;;;7.56;72.50;100215.19;5009453;28;20038;-71
2022/04/12 06:04:09;;;;;;;8.52;4.32;;;;;;;7.92;72.47;100208.31;4990932;28;20587;-72
2022/04/12 06:06:35;;;;;;;6.50;4.32;;;;;;;8.25;71.79;100201.69;5008551;28;20081;-71
2022/04/12 06:09:01;;;;;;;6.63;4.20;;;;;;;8.57;71.61;100208.38;5009025;28;20430;-71
2022/04/12 06:11:26;;;;;;;5.63;3.70;;;;;;;8.98;71.16;100202.72;5008612;28;20034;-71
2022/04/12 06:13:52;;;;;;;6.15;4.07;;;;;;;9.28;70.47;100207.63;5008672;28;20041;-71
2022/04/12 06:16:17;;;;;;;5.65;3.38;;;;;;;9.47;69.69;100219.03;5008342;28;20111;-72
2022/04/12 06:18:43;;;;;;;5.18;3.30;;;;;;;9.65;69.17;100211.06;5008782;28;20030;-71
2022/04/12 06:21:08;;;;;;;5.90;4.03;;;;;;;9.79;68.12;100210.50;5007054;28;20095;-71
2022/04/12 06:23:33;;;;;;;6.00;3.88;;;;;;;10.11;67.37;100214.34;5003145;28;20523;-72
2022/04/12 06:25:59;;;;;;;6.15;4.35;;;;;;;10.39;66.65;100207.94;5004288;28;20029;-72
2022/04/12 06:28:24;;;;;;;4.97;3.63;;;;;;;10.94;66.13;100213.72;4998471;28;20039;-72
2022/04/12 06:30:49;;;;;;;6.03;3.72;;;;;;;11.29;65.72;100214.44;5003912;28;20077;-72
2022/04/12 06:33:15;;;;;;;4.95;3.70;;;;;;;11.72;62.97;100212.47;5002823;28;20042;-72
2022/04/12 06:35:40;;;;;;;7.18;4.30;;;;;;;11.96;61.81;100220.41;5007177;28;20057;-72
2022/04/12 06:38:06;;;;;;;6.65;4.22;;;;;;;12.04;61.41;100224.88;5007098;28;20050;-72
2022/04/12 06:40:31;;;;;;;6.32;4.40;;;;;;;11.99;61.26;100225.38;5005030;28;20417;-72
2022/04/12 06:42:57;;;;;;;6.20;4.40;;;;;;;12.14;60.25;100222.03;5007195;28;20573;-72
2022/04/12 06:45:22;;;;;;;6.25;4.28;;;;;;;12.02;59.84;100227.69;5009288;28;20038;-72
2022/04/12 06:47:58;;;;;;;6.35;4.18;;;;;;;11.97;60.65;100223.91;5011916;28;20041;-72
2022/04/12 06:50:24;;;;;;;5.25;3.60;;;;;;;12.15;60.99;100221.84;5009523;28;20042;-72
2022/04/12 06:52:51;;;;;;;5.20;3.83;;;;;;;12.35;60.37;100222.31;5010578;28;20097;-72
2022/04/12 06:55:16;;;;;;;5.65;3.92;;;;;;;12.64;60.12;100223.53;5007418;28;20414;-72
2022/04/12 06:57:41;;;;;;;5.50;4.05;;;;;;;12.90;59.94;100221.41;5006711;28;20031;-72
2022/04/12 07:00:08;;;;;;;5.30;3.55;;;;;;;13.16;59.19;100221.09;5009064;28;20038;-72
2022/04/12 07:02:33;;;;;;;4.53;3.33;;;;;;;;;;5007882;28;20042;-72
2022/04/12 07:04:59;;;;;;;4.53;3.03;;;;;;;14.32;nan;100038.22;5008322;28;20515;-72
2022/04/12 07:07:24;;;;;;;5.20;3.22;;;;;;;14.68;nan;100116.38;5008933;28;20073;-72
2022/04/12 07:09:50;;;;;;;4.43;3.20;;;;;;;15.12;nan;100235.25;5007716;28;20030;-73
2022/04/12 07:12:15;;;;;;;5.75;3.15;;;;;;;15.56;nan;100252.88;5006931;28;20038;-72
2022/04/12 07:14:40;;;;;;;5.18;3.08;;;;;;;15.86;nan;100257.06;5006038;28;20069;-72
2022/04/12 07:17:06;;;;;;;3.63;2.47;;;;;;;16.31;nan;100254.09;4990039;28;20042;-73
2022/04/12 07:19:31;;;;;;;6.28;3.17;;;;;;;16.41;nan;100264.44;5008012;28;20052;-73
2022/04/12 07:21:56;;;;;;;4.63;3.22;;;;;;;16.37;nan;100265.84;5008505;28;20109;-72
2022/04/12 07:24:22;;;;;;;4.57;3.20;;;;;;;16.26;nan;100268.03;5006398;28;20041;-72
2022/04/12 07:26:47;;;;;;;4.80;3.30;;;;;;;16.28;nan;100260.66;4991505;28;20053;-73
2022/04/12 07:29:12;;;;;;;4.70;3.22;;;;;;;16.42;nan;100258.91;5002960;28;20121;-72
2022/04/12 07:31:38;;;;;;;5.05;3.08;;;;;;;16.60;nan;100250.34;5005657;28;20522;-73
2022/04/12 07:34:04;;;;;;;4.40;3.20;;;;;;;16.69;nan;100248.34;5008678;28;20200;-72
2022/04/12 07:36:29;;;;;;;4.57;2.92;;;;;;;16.89;nan;100241.25;5004115;28;20066;-73
2022/04/12 07:38:54;;;;;;;5.50;3.63;;;;;;;16.92;nan;100256.91;5007155;28;20049;-72
2022/04/12 07:41:20;;;;;;;5.55;3.40;;;;;;;17.22;nan;100255.75;5008393;28;20038;-72
2022/04/12 07:43:46;;;;;;;4.40;2.75;;;;;;;17.43;nan;100263.63;5008100;28;20038;-72
2022/04/12 07:46:13;;;;;;;4.07;2.90;;;;;;;17.65;nan;100258.09;5006170;28;20091;-72
2022/04/12 07:48:43;;;;;;;4.68;3.00;;;;;;;17.78;nan;100244.69;5006436;28;20034;-72
2022/04/12 07:51:08;;;;;;;5.90;3.30;;;;;;;17.94;nan;100247.00;5008323;28;20069;-73
2022/04/12 07:53:34;;;;;;;4.95;3.25;;;;;;;18.19;nan;100243.69;5010629;28;20034;-72
2022/04/12 07:55:59;;;;;;;5.03;3.33;;;;;;;18.29;nan;100237.91;5009036;28;20042;-73
2022/04/12 07:58:24;;;;;;;4.63;2.97;;;;;;;18.69;nan;100243.97;5010040;28;20025;-73
2022/04/12 08:00:50;;;;;;;3.80;2.80;;;;;;;19.16;nan;100249.94;5008933;28;20050;-73
2022/04/12 08:03:16;;;;;;;4.80;3.33;;;;;;;19.70;nan;100237.84;5010228;28;20117;-73
2022/04/12 08:05:41;;;;;;;4.07;3.00;;;;;;;20.12;nan;100239.97;5009662;28;20041;-73
2022/04/12 08:08:07;;;;;;;5.50;3.28;;;;;;;20.41;nan;100229.53;5006087;28;20124;-73
2022/04/12 08:10:32;;;;;;;6.35;3.92;;;;;;;20.03;nan;100233.25;5006179;28;20411;-73
2022/04/12 08:12:58;;;;;;;3.47;2.70;;;;;;;20.08;nan;100233.38;5007063;28;20038;-73
2022/04/12 08:15:26;;;;;;;4.38;2.70;;;;;;;20.24;nan;100234.69;5007363;28;20066;-73
2022/04/12 08:17:51;;;;;;;4.63;2.42;;;;;;;20.81;nan;100227.22;4990071;28;20091;-73
2022/04/12 08:20:17;;;;;;;3.92;2.30;;;;;;;21.14;nan;100221.41;5006776;28;20034;-72
2022/04/12 08:22:43;;;;;;;3.15;2.30;;;;;;;21.59;nan;100214.72;5005679;28;20053;-73
2022/04/12 08:25:10;;;;;;;5.85;3.30;;;;;;;21.81;nan;100223.91;5006886;28;20121;-73
2022/04/12 08:27:36;;;;;;;5.28;3.22;;;;;;;21.92;nan;100222.25;5007139;28;20577;-73
2022/04/12 08:30:03;;;;;;;5.28;3.40;;;;;;;22.11;nan;100217.56;5008408;28;20032;-73
2022/04/12 08:32:29;;;;;;;5.22;3.10;;;;;;;22.32;nan;100223.44;5003373;28;20029;-73
2022/04/12 08:34:55;;;;;;;3.70;2.60;;;;;;;22.48;nan;100222.72;5005834;28;20115;-73
2022/04/12 08:37:21;;;;;;;9.98;6.50;;;;;;;22.51;nan;100216.03;5005876;28;20033;-72
2022/04/12 08:39:47;;;;;;;5.68;3.80;;;;;;;22.24;nan;100221.94;5007227;28;20301;-73
2022/04/12 08:42:12;;;;;;;4.38;3.03;;;;;;;22.68;nan;100225.78;5008062;28;20124;-73
2022/04/12 08:44:39;;;;;;;4.30;2.80;;;;;;;22.94;nan;100226.31;4992346;28;20109;-73
2022/04/12 08:47:06;;;;;;;4.65;2.90;;;;;;;23.41;nan;100238.78;5010204;28;20030;-73
2022/04/12 08:49:35;;;;;;;3.92;2.80;;;;;;;23.82;nan;100228.66;4993008;28;20038;-73
2022/04/12 08:52:01;;;;;;;4.47;2.72;;;;;;;24.46;nan;100241.72;5010924;28;20368;-73
2022/04/12 08:54:28;;;;;;;3.85;2.53;;;;;;;24.93;nan;100236.66;5006143;28;20113;-73
2022/04/12 08:56:54;;;;;;;5.03;3.08;;;;;;;25.11;nan;100227.34;5005749;28;20072;-73
2022/04/12 08:59:19;;;;;;;4.35;2.70;;;;;;;24.52;nan;100236.16;5005415;28;20490;-73
2022/04/12 09:01:46;;;;;;;3.97;2.33;;;;;;;24.19;nan;100226.22;5004715;28;20044;-72
2022/04/12 09:04:12;;;;;;;3.65;2.40;;;;;;;24.15;nan;100227.81;5007965;28;20054;-73
2022/04/12 09:06:52;;;;;;;4.55;3.30;;;;;;;23.72;nan;100237.41;5009893;28;20025;-73
2022/04/12 09:09:20;;;;;;;4.65;3.03;;;;;;;24.06;nan;100229.28;5008480;28;20103;-73
2022/04/12 09:12:04;;;;;;;4.28;2.80;;;;;;;24.49;nan;100225.84;5006555;28;20111;-73
2022/04/12 09:14:54;;;;;;;4.18;3.28;;;;;;;24.84;nan;100226.50;5006442;28;20038;-73
2022/04/12 09:17:26;;;;;;;4.47;2.50;;;;;;;24.91;nan;100222.56;5003594;28;20438;-73
2022/04/12 09:19:52;;;;;;;4.75;3.00;;;;;;;25.27;nan;100214.00;5008310;28;20502;-73
2022/04/12 09:22:21;;;;;;;4.60;3.05;;;;;;;25.17;nan;100220.09;5004520;28;20084;-73
2022/04/12 09:24:49;;;;;;;4.43;2.72;;;;;;;25.32;nan;100216.75;5006964;28;20113;-73
2022/04/12 09:27:16;;;;;;;5.68;3.25;;;;;;;25.40;nan;100216.28;5005793;28;20038;-73
2022/04/12 09:29:52;;;;;;;3.67;2.60;;;;;;;24.90;nan;100199.25;5007099;28;20069;-73
2022/04/12 09:32:23;;;;;;;4.30;3.08;;;;;;;25.13;nan;100197.34;5005341;28;20042;-72
2022/04/12 09:34:49;;;;;;;5.15;3.72;;;;;;;25.18;nan;100197.41;5005623;28;20518;-73
2022/04/12 09:37:29;;;;;;;6.35;3.83;;;;;;;24.59;nan;100196.22;5006650;28;20034;-73
2022/04/12 09:40:00;;;;;;;4.53;3.08;;;;;;;24.44;nan;100189.81;5005952;28;20032;-73
2022/04/12 09:42:45;;;;;;;3.95;2.78;;;;;;;24.68;nan;100187.69;5004331;28;20050;-72
2022/04/12 09:45:24;;;;;;;4.15;2.83;;;;;;;25.42;nan;100184.34;5004642;28;20033;-72
2022/04/12 09:47:52;;;;;;;4.32;3.13;;;;;;;26.17;nan;100195.16;4987155;28;20277;-72
2022/04/12 09:50:25;;;;;;;4.18;2.72;;;;;;;26.78;nan;100189.19;5005206;28;20103;-73
2022/04/12 09:52:54;;;;;;;5.95;3.15;;;;;;;27.00;nan;100197.09;5007303;28;20125;-73
2022/04/12 09:55:44;;;;;;;2.60;2.03;;;;;;;27.66;nan;100194.41;5005377;28;20137;-73
2022/04/12 09:58:12;;;;;;;3.72;2.40;;;;;;;28.56;nan;100185.50;4986289;28;20084;-71
2022/04/12 10:00:39;;;;;;;3.35;2.60;;;;;;;29.09;nan;100187.66;5005425;28;20218;-73
2022/04/12 10:03:06;;;;;;;5.13;2.83;;;;;;;28.68;nan;100184.38;5006057;28;20054;-73
2022/04/12 10:05:33;;;;;;;4.10;2.35;;;;;;;29.60;nan;100170.06;5005116;28;20077;-72
2022/04/12 10:08:01;;;;;;;4.15;2.70;;;;;;;29.84;nan;100168.22;4999661;28;20084;-73
2022/04/12 10:10:27;;;;;;;3.60;2.70;;;;;;;29.80;nan;100167.16;5007713;28;20121;-73
2022/04/12 10:12:54;;;;;;;4.07;3.10;;;;;;;29.73;nan;100163.97;5010588;28;20449;-73
2022/04/12 10:15:20;;;;;;;4.32;2.45;;;;;;;30.83;nan;100161.28;5008006;28;20030;-73
2022/04/12 10:17:49;;;;;;;5.22;3.35;;;;;;;31.02;nan;100158.53;4993108;28;20116;-73
2022/04/12 10:20:20;;;;;;;3.88;2.42;;;;;;;31.41;nan;100148.34;5009323;28;20030;-73
2022/04/12 10:22:47;;;;;;;4.22;2.65;;;;;;;31.77;nan;100156.69;5009762;28;20509;-71
2022/04/12 10:25:17;;;;;;;5.38;3.25;;;;;;;32.61;nan;100152.84;5007242;28;20045;-71
2022/04/12 10:27:43;;;;;;;3.67;2.53;;;;;;;32.91;nan;100150.50;5010027;28;20034;-73
2022/04/12 10:30:15;;;;;;;4.47;2.80;;;;;;;31.93;nan;100149.81;5011570;28;20034;-71
2022/04/12 10:33:01;;;;;;;2.88;1.90;;;;;;;31.92;nan;100136.47;5011205;28;20521;-70
2022/04/12 10:35:56;;;;;;;3.05;1.80;;;;;;;32.58;nan;100128.78;5011013;28;20070;-70
2022/04/12 10:38:24;;;;;;;4.47;2.70;;;;;;;33.75;nan;100124.25;5010131;28;20407;-71
2022/04/12 10:40:52;;;;;;;3.50;2.70;;;;;;;34.26;nan;100122.81;4992721;28;20060;-71
2022/04/12 10:43:23;;;;;;;3.20;2.08;;;;;;;34.42;nan;100112.16;5011109;28;20083;-71
2022/04/12 10:45:51;;;;;;;2.72;1.98;;;;;;;35.05;nan;100102.44;5012436;28;20045;-71
2022/04/12 10:48:22;;;;;;;3.58;2.22;;;;;;;35.66;nan;100102.31;5013310;28;20037;-71
2022/04/12 10:50:48;;;;;;;;;;;;;;;36.19;nan;100100.06;5010421;28;20749;-71
2022/04/12 10:53:14;;;;;;;3.50;2.00;;;;;;;35.86;nan;100092.47;5006806;28;19960;-71
2022/04/12 10:55:41;;;;;;;3.05;2.15;;;;;;;35.86;nan;100091.69;5009392;28;20062;-71
2022/04/12 10:58:35;;;;;;;3.58;2.50;;;;;;;35.84;nan;100088.44;5008832;28;20037;-72
2022/04/12 11:01:01;;;;;;;3.53;2.20;;;;;;;35.50;nan;100077.25;4986058;28;20057;-71
2022/04/12 11:03:41;;;;;;;3.03;2.13;;;;;;;35.85;nan;100082.63;5008048;28;20236;-71
2022/04/12 11:06:14;;;;;;;3.72;2.38;;;;;;;36.25;nan;100081.41;5004879;28;20058;-72
2022/04/12 11:08:43;;;;;;;4.53;2.60;;;;;;;36.62;nan;100084.38;5009495;28;20113;-72
2022/04/12 11:11:10;;;;;;;3.67;2.55;;;;;;;36.54;nan;100078.59;5009317;28;20066;-71
2022/04/12 11:13:35;;;;;;;3.33;2.10;;;;;;;36.41;nan;100076.09;5007156;28;20041;-71
2022/04/12 11:16:12;;;;;;;5.32;2.60;;;;;;;36.84;nan;100072.97;5008230;28;20038;-71
2022/04/12 11:18:52;;;;;;;4.35;1.98;;;;;;;37.47;nan;100071.94;5009501;28;20120;-72
2022/04/12 11:21:20;;;;;;;3.40;1.98;;;;;;;37.71;nan;100060.13;5010555;28;20125;-71
2022/04/12 11:23:45;;;;;;;2.53;1.80;;;;;;;37.97;nan;100059.75;4992542;28;20080;-71
2022/04/12 11:26:36;;;;;;;3.00;1.40;;;;;;;38.36;nan;100049.88;5006647;28;20065;-72
2022/04/12 11:29:05;;;;;;;3.40;1.80;;;;;;;38.53;nan;100050.78;4999101;28;20061;-71
2022/04/12 11:31:30;;;;;;;3.13;1.60;;;;;;;38.26;nan;100055.91;5007561;28;20041;-71
2022/04/12 11:33:57;;;;;;;2.72;1.50;;;;;;;38.44;nan;100046.16;5007072;28;20041;-71
2022/04/12 11:36:24;;;;;;;3.67;1.90;;;;;;;38.00;nan;100053.56;5005901;28;20137;-72
2022/04/12 11:38:49;;;;;;;3.53;1.85;;;;;;;37.95;nan;100051.00;5007433;28;20049;-71